Time;durP1;ratioP1;P1;durP2;ratioP2;P2;SDS_P1;SDS_P2;PMS_P1;PMS_P2;Temp;Humidity;BMP_temperature;BMP_pressure;BME280_temperature;BME280_humidity;BME280_pressure;Samples;Min_cycle;Max_cycle;Signal;HPM_P1;HPM_P2
2023/07/24 00:00:33;;;;;;;3.10;2.28;;;22.00;58.40;;;;;;4973343;28;20050;-65
2023/07/24 00:02:59;;;;;;;3.58;2.70;;;22.00;58.40;;;;;;4977493;28;20035;-64
2023/07/24 00:05:24;;;;;;;3.10;2.45;;;21.90;58.40;;;;;;4977758;28;20026;-65
2023/07/24 00:07:50;;;;;;;3.28;2.55;;;22.00;58.50;;;;;;4975156;28;20134;-63
2023/07/24 00:10:15;;;;;;;2.40;2.10;;;21.90;58.30;;;;;;4975112;28;20495;-65
2023/07/24 00:12:41;;;;;;;3.95;2.88;;;22.00;58.50;;;;;;4982602;28;20647;-66
2023/07/24 00:15:07;;;;;;;3.80;2.60;;;22.00;58.50;;;;;;4978733;28;20026;-64
2023/07/24 00:17:32;;;;;;;2.00;1.80;;;22.00;58.50;;;;;;4978296;28;20379;-66
2023/07/24 00:19:58;;;;;;;3.00;2.33;;;22.00;58.50;;;;;;4977900;28;20053;-65
2023/07/24 00:22:23;;;;;;;2.85;2.20;;;22.00;58.50;;;;;;4977071;28;20477;-65
2023/07/24 00:24:49;;;;;;;2.85;2.40;;;22.00;58.50;;;;;;4974997;28;20042;-64
2023/07/24 00:27:14;;;;;;;3.85;2.60;;;22.00;58.50;;;;;;4979602;28;20030;-65
2023/07/24 00:29:40;;;;;;;3.50;2.55;;;22.00;58.50;;;;;;4974458;28;20035;-63
2023/07/24 00:32:06;;;;;;;3.30;2.80;;;22.00;58.50;;;;;;4975007;28;20047;-67
2023/07/24 00:34:31;;;;;;;2.80;2.13;;;22.00;58.40;;;;;;4975708;28;20081;-66
2023/07/24 00:36:57;;;;;;;2.40;2.05;;;22.00;58.40;;;;;;4970373;28;20085;-66
2023/07/24 00:39:22;;;;;;;2.65;2.25;;;22.00;58.40;;;;;;4990415;28;20050;-69
2023/07/24 00:41:48;;;;;;;4.28;2.70;;;22.00;59.00;;;;;;4976445;28;20023;-66
2023/07/24 00:44:13;;;;;;;2.53;2.15;;;22.00;58.40;;;;;;4977895;28;20027;-64
2023/07/24 00:46:39;;;;;;;3.28;2.15;;;22.00;58.40;;;;;;4978640;28;20089;-65
2023/07/24 00:49:05;;;;;;;3.58;2.60;;;22.00;58.40;;;;;;4973237;28;20046;-66
2023/07/24 00:51:31;;;;;;;2.85;2.25;;;22.00;58.40;;;;;;4968567;28;20037;-65
2023/07/24 00:54:01;;;;;;;3.17;2.60;;;22.00;58.40;;;;;;4964718;28;20498;-66
2023/07/24 00:56:28;;;;;;;3.85;2.40;;;22.00;58.50;;;;;;4975393;28;20089;-65
2023/07/24 00:58:55;;;;;;;3.00;2.33;;;22.00;58.50;;;;;;4971049;28;20054;-58
2023/07/24 01:01:22;;;;;;;2.85;2.42;;;22.00;58.50;;;;;;4984442;28;20113;-58
2023/07/24 01:03:48;;;;;;;3.88;2.22;;;22.00;58.50;;;;;;4981684;28;20365;-60
2023/07/24 01:06:13;;;;;;;3.55;2.53;;;21.90;58.30;;;;;;4966400;28;20023;-67
2023/07/24 01:08:39;;;;;;;2.67;2.47;;;22.00;58.40;;;;;;4971623;28;20077;-61
2023/07/24 01:11:20;;;;;;;4.13;2.35;;;22.00;58.40;;;;;;4971001;28;20498;-66
2023/07/24 01:13:59;;;;;;;2.30;1.90;;;22.00;58.40;;;;;;4962916;28;20097;-56
2023/07/24 01:16:32;;;;;;;3.00;2.08;;;22.00;58.60;;;;;;4974440;28;20038;-70
2023/07/24 01:19:01;;;;;;;2.90;2.08;;;22.00;58.40;;;;;;4974272;28;20063;-65
2023/07/24 01:21:38;;;;;;;2.83;1.77;;;22.00;58.60;;;;;;4975829;28;20121;-67
2023/07/24 01:24:31;;;;;;;3.45;2.45;;;22.00;58.50;;;;;;4980529;28;20035;-64
2023/07/24 01:26:56;;;;;;;2.42;2.22;;;22.00;58.60;;;;;;4976117;28;20042;-63
2023/07/24 01:29:23;;;;;;;4.55;3.13;;;22.00;58.60;;;;;;4972891;28;20035;-67
2023/07/24 01:31:48;;;;;;;3.47;2.42;;;22.00;58.80;;;;;;4978413;28;20056;-67
2023/07/24 01:34:14;;;;;;;2.50;2.15;;;22.00;58.60;;;;;;4972582;28;20351;-67
2023/07/24 01:36:39;;;;;;;2.45;2.25;;;22.00;58.70;;;;;;4972675;28;20026;-67
2023/07/24 01:39:05;;;;;;;4.13;2.45;;;22.00;58.60;;;;;;4978273;28;20073;-67
2023/07/24 01:41:31;;;;;;;2.53;2.33;;;22.00;58.60;;;;;;4982221;28;20533;-65
2023/07/24 01:43:59;;;;;;;4.07;2.22;;;22.00;58.70;;;;;;4976708;28;20046;-67
2023/07/24 01:46:24;;;;;;;2.47;2.22;;;22.00;58.80;;;;;;4982467;28;20033;-67
2023/07/24 01:48:52;;;;;;;3.20;2.40;;;22.00;58.60;;;;;;4973082;28;20044;-62
2023/07/24 01:51:17;;;;;;;2.88;2.53;;;22.00;58.60;;;;;;4976780;28;20030;-67
2023/07/24 01:53:43;;;;;;;3.05;2.08;;;22.00;59.30;;;;;;4969370;28;20544;-67
2023/07/24 01:56:08;;;;;;;3.17;2.42;;;22.00;58.80;;;;;;4972683;28;20035;-68
2023/07/24 01:58:34;;;;;;;4.20;2.97;;;22.00;58.90;;;;;;4975672;28;20030;-66
2023/07/24 02:00:59;;;;;;;3.47;2.15;;;22.00;58.70;;;;;;4971941;28;20258;-67
2023/07/24 02:03:25;;;;;;;3.63;2.25;;;22.00;58.80;;;;;;4976137;28;20030;-67
2023/07/24 02:05:51;;;;;;;3.33;2.28;;;22.00;58.60;;;;;;4969273;28;20023;-67
2023/07/24 02:08:17;;;;;;;2.40;2.03;;;22.00;58.60;;;;;;4974851;28;20041;-68
2023/07/24 02:10:42;;;;;;;2.58;1.77;;;22.00;58.70;;;;;;4967070;28;20401;-67
2023/07/24 02:13:09;;;;;;;3.30;2.30;;;22.00;58.60;;;;;;4967988;28;20031;-63
2023/07/24 02:15:34;;;;;;;3.00;2.60;;;22.00;58.60;;;;;;4978116;28;20101;-66
2023/07/24 02:18:00;;;;;;;3.33;2.10;;;22.00;58.70;;;;;;4970433;28;20458;-67
2023/07/24 02:20:25;;;;;;;2.47;2.15;;;22.00;58.70;;;;;;4974690;28;20031;-67
2023/07/24 02:22:51;;;;;;;2.60;2.10;;;22.00;58.60;;;;;;4968702;28;20022;-67
2023/07/24 02:25:17;;;;;;;3.13;2.60;;;22.00;58.80;;;;;;4973626;28;20090;-66
2023/07/24 02:27:42;;;;;;;2.83;2.45;;;22.00;58.60;;;;;;4974305;28;20041;-67
2023/07/24 02:30:08;;;;;;;3.35;2.45;;;22.00;58.80;;;;;;4983464;28;20085;-63
2023/07/24 02:32:33;;;;;;;2.63;2.10;;;22.00;58.50;;;;;;4976077;28;20023;-67
2023/07/24 02:34:59;;;;;;;4.95;2.60;;;22.00;58.70;;;;;;4966380;28;20042;-67
2023/07/24 02:37:25;;;;;;;3.17;2.35;;;22.00;58.60;;;;;;4974894;28;20061;-67
2023/07/24 02:39:52;;;;;;;3.63;2.20;;;22.00;58.70;;;;;;4975524;28;20114;-67
2023/07/24 02:42:17;;;;;;;3.58;2.50;;;22.00;58.70;;;;;;4972181;28;20047;-67
2023/07/24 02:44:43;;;;;;;2.70;2.40;;;22.00;58.60;;;;;;4970054;28;20555;-64
2023/07/24 02:47:08;;;;;;;2.90;2.50;;;22.00;58.70;;;;;;4971872;28;20134;-67
2023/07/24 02:49:34;;;;;;;2.30;2.03;;;22.00;58.60;;;;;;4971421;28;20117;-67
2023/07/24 02:51:59;;;;;;;4.05;2.65;;;22.00;58.60;;;;;;4969919;28;20034;-66
2023/07/24 02:54:26;;;;;;;3.40;2.40;;;22.00;58.60;;;;;;4972028;28;20042;-67
2023/07/24 02:56:51;;;;;;;2.63;2.28;;;22.00;58.70;;;;;;4968853;28;20036;-67
2023/07/24 02:59:17;;;;;;;2.80;2.08;;;22.00;58.70;;;;;;4965442;28;20035;-67
2023/07/24 03:01:42;;;;;;;3.40;2.30;;;22.00;58.80;;;;;;4970051;28;20026;-68
2023/07/24 03:04:08;;;;;;;3.08;2.42;;;21.90;58.70;;;;;;4968484;28;20509;-67
2023/07/24 03:06:34;;;;;;;2.97;2.25;;;22.00;59.30;;;;;;4987006;28;20023;-67
2023/07/24 03:09:00;;;;;;;2.97;2.28;;;22.00;58.50;;;;;;4972049;28;20410;-60
2023/07/24 03:11:26;;;;;;;3.15;2.50;;;22.00;58.70;;;;;;4977522;28;20034;-61
2023/07/24 03:13:51;;;;;;;3.60;2.80;;;21.90;58.70;;;;;;4980858;28;20030;-67
2023/07/24 03:16:19;;;;;;;3.28;2.40;;;21.90;58.60;;;;;;4970935;28;20425;-64
2023/07/24 03:18:44;;;;;;;3.55;2.70;;;22.00;58.70;;;;;;4970637;28;20034;-66
2023/07/24 03:21:10;;;;;;;3.45;2.65;;;21.90;58.60;;;;;;4968199;28;20042;-66
2023/07/24 03:23:35;;;;;;;2.85;2.10;;;22.00;58.60;;;;;;4970833;28;20034;-68
2023/07/24 03:26:01;;;;;;;3.60;2.20;;;22.00;58.80;;;;;;4977214;28;20030;-67
2023/07/24 03:28:27;;;;;;;2.50;2.15;;;22.00;58.60;;;;;;4976335;28;20310;-67
2023/07/24 03:30:53;;;;;;;3.88;2.88;;;21.90;58.40;;;;;;4978576;28;20027;-67
2023/07/24 03:33:18;;;;;;;3.03;2.45;;;22.00;58.60;;;;;;4977523;28;20046;-67
2023/07/24 03:35:43;;;;;;;3.17;2.70;;;21.90;58.30;;;;;;4980778;28;20497;-64
2023/07/24 03:38:09;;;;;;;3.58;2.65;;;22.00;58.60;;;;;;4977599;28;20030;-62
2023/07/24 03:40:34;;;;;;;3.53;2.63;;;21.90;58.50;;;;;;4975656;28;20445;-62
2023/07/24 03:43:00;;;;;;;6.00;2.80;;;22.00;58.60;;;;;;4977607;28;20026;-65
2023/07/24 03:45:25;;;;;;;3.92;3.15;;;22.00;58.60;;;;;;4981395;28;20035;-65
2023/07/24 03:47:51;;;;;;;3.25;2.78;;;22.00;58.40;;;;;;4976110;28;20077;-67
2023/07/24 03:50:17;;;;;;;3.20;2.58;;;21.90;58.50;;;;;;4986019;28;20039;-67
2023/07/24 03:52:42;;;;;;;4.07;2.92;;;21.90;58.70;;;;;;4982981;28;20026;-62
2023/07/24 03:55:09;;;;;;;4.47;2.72;;;22.00;58.60;;;;;;4977950;28;20053;-66
2023/07/24 03:57:34;;;;;;;3.05;2.30;;;22.00;58.70;;;;;;4978986;28;20031;-67
2023/07/24 04:00:00;;;;;;;2.65;2.45;;;22.00;58.70;;;;;;4973730;28;20057;-63
2023/07/24 04:02:25;;;;;;;2.78;2.45;;;22.00;58.60;;;;;;4979629;28;20042;-67
2023/07/24 04:04:51;;;;;;;3.80;2.35;;;22.00;58.60;;;;;;4977201;28;20061;-67
2023/07/24 04:07:16;;;;;;;3.17;2.42;;;22.00;58.60;;;;;;4975239;28;20045;-67
2023/07/24 04:09:42;;;;;;;2.83;2.38;;;22.00;59.00;;;;;;4980414;28;20493;-61
2023/07/24 04:12:08;;;;;;;3.92;2.88;;;22.00;58.80;;;;;;4973128;28;20485;-67
2023/07/24 04:14:33;;;;;;;4.07;3.10;;;22.00;58.80;;;;;;4975473;28;20042;-66
2023/07/24 04:16:59;;;;;;;2.97;2.65;;;21.90;58.60;;;;;;4972417;28;20039;-67
2023/07/24 04:19:25;;;;;;;3.25;2.55;;;22.00;58.60;;;;;;4975980;28;20035;-65
2023/07/24 04:21:50;;;;;;;3.28;2.42;;;21.90;58.70;;;;;;4970750;28;20093;-62
2023/07/24 04:24:16;;;;;;;3.45;2.15;;;21.90;58.70;;;;;;4976275;28;20062;-66
2023/07/24 04:26:42;;;;;;;3.20;2.30;;;22.00;58.70;;;;;;4969894;28;20023;-67
2023/07/24 04:29:08;;;;;;;3.67;2.50;;;21.90;58.60;;;;;;4968140;28;20038;-61
2023/07/24 04:31:33;;;;;;;3.38;2.75;;;21.90;58.80;;;;;;4974815;28;20445;-67
2023/07/24 04:33:59;;;;;;;3.78;2.58;;;21.90;58.80;;;;;;4973633;28;20086;-66
2023/07/24 04:36:24;;;;;;;3.33;3.00;;;21.90;58.80;;;;;;4970579;28;20018;-67
2023/07/24 04:38:50;;;;;;;2.97;2.60;;;22.00;58.90;;;;;;4961015;28;20038;-62
2023/07/24 04:41:15;;;;;;;3.20;2.50;;;22.00;59.00;;;;;;4977125;28;20570;-67
2023/07/24 04:43:41;;;;;;;3.55;2.30;;;21.90;58.80;;;;;;4982895;28;20030;-67
2023/07/24 04:46:07;;;;;;;2.92;2.50;;;22.00;59.10;;;;;;4983412;28;20038;-62
2023/07/24 04:48:32;;;;;;;3.90;2.90;;;21.90;58.90;;;;;;4984274;28;20038;-65
2023/07/24 04:50:58;;;;;;;3.45;2.72;;;22.00;59.00;;;;;;4975715;28;20038;-67
2023/07/24 04:53:23;;;;;;;3.65;2.60;;;22.00;59.10;;;;;;4972959;28;20342;-67
2023/07/24 04:55:49;;;;;;;3.17;2.55;;;21.90;58.80;;;;;;4966528;28;20034;-67
2023/07/24 04:58:15;;;;;;;4.25;2.80;;;22.00;59.10;;;;;;4976736;28;20038;-67
2023/07/24 05:00:40;;;;;;;3.10;2.78;;;22.00;59.00;;;;;;4979148;28;20030;-67
2023/07/24 05:03:08;;;;;;;3.35;2.75;;;21.90;58.90;;;;;;4973784;28;20041;-67
2023/07/24 05:05:34;;;;;;;3.75;2.45;;;22.00;59.10;;;;;;4977300;28;20077;-67
2023/07/24 05:07:59;;;;;;;3.20;2.65;;;22.00;59.10;;;;;;4974467;28;20124;-66
2023/07/24 05:10:25;;;;;;;3.33;2.75;;;22.00;59.00;;;;;;4973998;28;20034;-67
2023/07/24 05:12:50;;;;;;;3.03;2.53;;;22.00;59.10;;;;;;4971436;28;20429;-68
2023/07/24 05:15:17;;;;;;;3.95;2.92;;;22.00;59.00;;;;;;4975150;28;20030;-65
2023/07/24 05:17:43;;;;;;;3.13;2.60;;;22.00;59.00;;;;;;4973478;28;20505;-68
2023/07/24 05:20:09;;;;;;;5.07;2.83;;;22.00;59.10;;;;;;4967377;28;20081;-63
2023/07/24 05:22:34;;;;;;;4.43;2.80;;;22.00;59.00;;;;;;4976086;28;20097;-67
2023/07/24 05:25:00;;;;;;;4.40;3.35;;;22.00;59.10;;;;;;4973033;28;20062;-66
2023/07/24 05:27:25;;;;;;;5.68;3.22;;;22.00;59.30;;;;;;4977879;28;20114;-67
2023/07/24 05:29:51;;;;;;;6.07;3.50;;;22.00;59.40;;;;;;4972858;28;20177;-67
2023/07/24 05:32:17;;;;;;;8.07;3.40;;;22.00;59.10;;;;;;4972683;28;20034;-68
2023/07/24 05:34:42;;;;;;;6.32;3.63;;;22.10;59.30;;;;;;4976086;28;20048;-62
2023/07/24 05:37:08;;;;;;;5.50;3.40;;;22.10;59.40;;;;;;4967071;28;20031;-63
2023/07/24 05:39:33;;;;;;;9.40;3.40;;;22.10;59.40;;;;;;4981516;28;20169;-67
2023/07/24 05:41:59;;;;;;;5.68;3.53;;;22.10;59.30;;;;;;4968501;28;20117;-67
2023/07/24 05:44:24;;;;;;;8.68;4.60;;;22.10;59.00;;;;;;4970385;28;20388;-67
2023/07/24 05:46:50;;;;;;;6.57;3.55;;;22.10;59.00;;;;;;4972444;28;20137;-68
2023/07/24 05:49:15;;;;;;;7.18;4.13;;;22.00;59.00;;;;;;4972521;28;20042;-68
2023/07/24 05:51:41;;;;;;;6.10;3.95;;;22.00;59.00;;;;;;4971127;28;20034;-67
2023/07/24 05:54:06;;;;;;;9.15;4.55;;;22.00;58.90;;;;;;4983289;28;20037;-68
2023/07/24 05:56:32;;;;;;;7.03;4.40;;;22.00;58.90;;;;;;4969646;28;20536;-66
2023/07/24 05:58:57;;;;;;;5.03;3.75;;;22.00;58.90;;;;;;4968922;28;20117;-68
2023/07/24 06:01:23;;;;;;;6.85;3.88;;;22.00;59.00;;;;;;4974384;28;20046;-68
2023/07/24 06:03:48;;;;;;;7.05;4.35;;;22.00;58.90;;;;;;4971336;28;20067;-68
2023/07/24 06:06:14;;;;;;;6.68;4.28;;;22.00;58.90;;;;;;4979128;28;20046;-67
2023/07/24 06:08:39;;;;;;;5.53;4.10;;;22.00;59.00;;;;;;4978163;28;20034;-69
2023/07/24 06:11:05;;;;;;;8.15;4.47;;;22.10;58.80;;;;;;4976195;28;20046;-67
2023/07/24 06:13:30;;;;;;;9.18;4.57;;;22.00;58.90;;;;;;4972401;28;20034;-68
2023/07/24 06:15:56;;;;;;;6.50;4.40;;;22.00;59.50;;;;;;4964942;28;20465;-68
2023/07/24 06:18:21;;;;;;;9.43;4.30;;;22.00;58.90;;;;;;4982295;28;20032;-67
2023/07/24 06:20:51;;;;;;;6.68;4.63;;;22.00;59.00;;;;;;4970371;28;20030;-68
2023/07/24 06:23:17;;;;;;;9.07;4.20;;;22.00;58.90;;;;;;4973782;28;20117;-68
2023/07/24 06:25:42;;;;;;;5.97;4.20;;;22.00;59.00;;;;;;4969038;28;20030;-66
2023/07/24 06:28:08;;;;;;;7.78;4.25;;;22.00;59.20;;;;;;4968769;28;20031;-69
2023/07/24 06:30:33;;;;;;;6.80;4.63;;;21.90;59.40;;;;;;4976043;28;20031;-67
2023/07/24 06:32:59;;;;;;;6.55;4.60;;;21.90;59.10;;;;;;4972466;28;20038;-67
2023/07/24 06:35:24;;;;;;;8.18;4.70;;;22.00;59.10;;;;;;4972249;28;20494;-68
2023/07/24 06:37:50;;;;;;;7.43;5.22;;;21.90;59.10;;;;;;4983754;28;20030;-69
2023/07/24 06:40:15;;;;;;;8.48;5.25;;;21.90;60.10;;;;;;4967466;28;20110;-68
2023/07/24 06:42:41;;;;;;;6.25;4.65;;;22.00;59.40;;;;;;4973092;28;20347;-69
2023/07/24 06:45:07;;;;;;;7.60;4.93;;;22.00;59.30;;;;;;4973551;28;20030;-69
2023/07/24 06:47:33;;;;;;;8.15;5.70;;;21.90;59.40;;;;;;4972127;28;20031;-68
2023/07/24 06:49:58;;;;;;;7.20;4.85;;;22.00;59.40;;;;;;4971164;28;20433;-68
2023/07/24 06:52:24;;;;;;;6.05;4.95;;;22.00;59.30;;;;;;4971720;28;20023;-68
2023/07/24 06:54:49;;;;;;;7.45;5.25;;;22.00;59.20;;;;;;4975803;28;20049;-69
2023/07/24 06:57:15;;;;;;;7.65;4.90;;;21.90;59.20;;;;;;4971338;28;20046;-68
2023/07/24 06:59:40;;;;;;;7.22;5.05;;;21.90;59.40;;;;;;4971416;28;20033;-66
2023/07/24 07:02:06;;;;;;;7.03;5.28;;;21.90;59.20;;;;;;4975150;28;20444;-69
2023/07/24 07:04:31;;;;;;;7.50;4.95;;;21.90;59.60;;;;;;4979266;28;20056;-68
2023/07/24 07:06:57;;;;;;;7.03;5.22;;;21.90;59.40;;;;;;4978410;28;20034;-68
2023/07/24 07:09:22;;;;;;;8.05;5.20;;;21.90;59.30;;;;;;4977581;28;20114;-68
2023/07/24 07:11:48;;;;;;;6.15;4.43;;;21.90;59.30;;;;;;4975837;28;20556;-70
2023/07/24 07:14:13;;;;;;;6.05;4.65;;;22.00;59.50;;;;;;4977980;28;20065;-69
2023/07/24 07:16:39;;;;;;;5.82;4.85;;;21.90;59.40;;;;;;4976849;28;20548;-69
2023/07/24 07:19:04;;;;;;;6.85;5.00;;;22.00;59.20;;;;;;4970225;28;20469;-69
2023/07/24 07:21:30;;;;;;;7.20;4.93;;;21.90;59.50;;;;;;4985214;28;20026;-69
2023/07/24 07:23:55;;;;;;;6.88;5.15;;;22.00;59.50;;;;;;4979897;28;20027;-66
2023/07/24 07:26:22;;;;;;;6.22;4.75;;;21.90;59.30;;;;;;4977563;28;20114;-68
2023/07/24 07:28:47;;;;;;;7.03;4.88;;;22.00;59.50;;;;;;4975955;28;20510;-67
2023/07/24 07:31:13;;;;;;;7.32;5.82;;;22.00;59.40;;;;;;4970221;28;20073;-66
2023/07/24 07:33:38;;;;;;;7.10;5.03;;;22.00;59.40;;;;;;4978338;28;20026;-68
2023/07/24 07:36:05;;;;;;;7.10;5.05;;;22.00;59.50;;;;;;4973894;28;20093;-66
2023/07/24 07:38:31;;;;;;;6.18;4.80;;;22.10;59.30;;;;;;4977140;28;20038;-68
2023/07/24 07:40:56;;;;;;;8.40;5.72;;;22.10;59.40;;;;;;4974204;28;20405;-69
2023/07/24 07:43:22;;;;;;;8.20;5.43;;;22.10;60.00;;;;;;4978680;28;20078;-69
2023/07/24 07:45:48;;;;;;;7.72;5.20;;;22.10;59.80;;;;;;4975701;28;20033;-69
2023/07/24 07:48:13;;;;;;;6.60;5.35;;;22.10;59.60;;;;;;4969922;28;20502;-65
2023/07/24 07:50:39;;;;;;;8.57;6.03;;;22.10;59.70;;;;;;4983479;28;20456;-65
2023/07/24 07:53:04;;;;;;;10.77;5.07;;;22.10;59.80;;;;;;4974521;28;20050;-64
2023/07/24 07:55:30;;;;;;;11.35;5.57;;;22.10;60.30;;;;;;4972037;28;20467;-64
2023/07/24 07:57:56;;;;;;;9.07;5.15;;;22.10;60.10;;;;;;4974532;28;20461;-64
2023/07/24 08:00:21;;;;;;;8.38;5.55;;;22.10;60.20;;;;;;4976054;28;20066;-66
2023/07/24 08:02:47;;;;;;;11.25;5.88;;;22.10;60.20;;;;;;4977156;28;20031;-65
2023/07/24 08:05:12;;;;;;;7.70;5.43;;;22.10;60.70;;;;;;4978471;28;20474;-66
2023/07/24 08:07:38;;;;;;;9.32;5.80;;;22.10;60.80;;;;;;4966582;28;20124;-65
2023/07/24 08:10:04;;;;;;;9.90;6.45;;;22.10;60.90;;;;;;4970464;28;20501;-65
2023/07/24 08:12:29;;;;;;;10.50;6.90;;;22.10;60.90;;;;;;4983541;28;22978;-66
2023/07/24 08:14:58;;;;;;;10.88;6.13;;;22.10;61.10;;;;;;4978006;28;20062;-66
2023/07/24 08:17:23;;;;;;;10.88;6.05;;;22.10;60.80;;;;;;4972954;28;20481;-65
2023/07/24 08:19:49;;;;;;;10.40;6.55;;;22.10;60.80;;;;;;4976074;28;20038;-65
2023/07/24 08:22:14;;;;;;;9.18;6.35;;;22.10;60.70;;;;;;4972291;28;20031;-67
2023/07/24 08:24:40;;;;;;;14.75;7.50;;;22.10;60.80;;;;;;4973866;28;20042;-66
2023/07/24 08:27:06;;;;;;;8.93;6.65;;;22.10;60.60;;;;;;4973662;28;20037;-66
2023/07/24 08:29:31;;;;;;;8.25;6.22;;;22.10;60.90;;;;;;4975328;28;20548;-67
2023/07/24 08:31:57;;;;;;;9.70;6.25;;;22.10;60.90;;;;;;4973013;28;20042;-64
2023/07/24 08:34:22;;;;;;;10.35;6.55;;;22.10;60.80;;;;;;4982688;28;20516;-66
2023/07/24 08:36:48;;;;;;;9.38;6.22;;;22.20;61.00;;;;;;4965521;28;20086;-66
2023/07/24 08:39:13;;;;;;;9.65;6.50;;;22.20;60.90;;;;;;4975937;28;20042;-65
2023/07/24 08:41:39;;;;;;;8.85;6.68;;;22.20;60.90;;;;;;4973734;28;20093;-66
2023/07/24 08:44:08;;;;;;;9.25;6.57;;;22.20;60.90;;;;;;4981700;28;20540;-67
2023/07/24 08:46:38;;;;;;;10.23;6.63;;;22.20;61.60;;;;;;4973511;28;20054;-66
2023/07/24 08:49:04;;;;;;;8.25;6.15;;;22.20;61.00;;;;;;4971264;28;20035;-65
2023/07/24 08:51:31;;;;;;;10.55;6.78;;;22.20;61.10;;;;;;4975864;28;20038;-65
2023/07/24 08:53:57;;;;;;;9.23;6.93;;;22.20;61.00;;;;;;4978047;28;20038;-65
2023/07/24 08:56:23;;;;;;;10.45;6.55;;;22.20;61.00;;;;;;4973696;28;20255;-65
2023/07/24 08:58:49;;;;;;;10.77;6.30;;;22.20;61.60;;;;;;4972339;28;20035;-66
2023/07/24 09:01:14;;;;;;;11.43;7.10;;;22.20;61.40;;;;;;4973069;28;20053;-66
2023/07/24 09:03:40;;;;;;;8.27;5.82;;;22.20;61.30;;;;;;4978626;28;20030;-65
2023/07/24 09:06:08;;;;;;;11.50;7.20;;;22.30;61.40;;;;;;4969655;28;20469;-66
2023/07/24 09:08:39;;;;;;;8.55;6.22;;;22.30;61.40;;;;;;4970694;28;20114;-64
2023/07/24 09:11:06;;;;;;;10.98;6.60;;;22.30;61.20;;;;;;4974768;28;20027;-65
2023/07/24 09:13:33;;;;;;;9.55;6.25;;;22.30;61.40;;;;;;4966791;28;20047;-65
2023/07/24 09:15:59;;;;;;;9.63;6.22;;;22.30;61.30;;;;;;4979103;28;20112;-65
2023/07/24 09:18:25;;;;;;;11.30;6.95;;;22.20;61.30;;;;;;4978973;28;20129;-65
2023/07/24 09:20:51;;;;;;;10.82;6.28;;;22.20;62.10;;;;;;4983140;28;20093;-65
2023/07/24 09:23:26;;;;;;;10.95;6.72;;;22.30;62.00;;;;;;4973792;28;20038;-65
2023/07/24 09:25:52;;;;;;;10.27;6.68;;;22.30;61.80;;;;;;4973709;28;20030;-65
2023/07/24 09:28:18;;;;;;;9.10;6.10;;;22.30;62.50;;;;;;4971950;28;20049;-65
2023/07/24 09:30:55;;;;;;;8.23;5.95;;;22.30;62.10;;;;;;4972733;28;20042;-65
2023/07/24 09:33:34;;;;;;;9.02;5.70;;;22.40;62.00;;;;;;4973462;28;20383;-65
2023/07/24 09:36:01;;;;;;;9.70;5.90;;;22.30;61.70;;;;;;4973835;28;20040;-64
2023/07/24 09:38:26;;;;;;;10.52;6.22;;;22.30;61.90;;;;;;4972502;28;20217;-64
2023/07/24 09:40:53;;;;;;;7.97;5.07;;;22.30;61.80;;;;;;4971915;28;20033;-64
2023/07/24 09:43:21;;;;;;;7.90;5.15;;;22.30;61.70;;;;;;4969474;28;20121;-65
2023/07/24 09:45:48;;;;;;;8.13;5.43;;;22.30;61.40;;;;;;4972009;28;20034;-66
2023/07/24 09:48:15;;;;;;;11.00;5.35;;;22.20;61.60;;;;;;4974456;28;20756;-66
2023/07/24 09:50:42;;;;;;;8.80;5.40;;;22.30;61.60;;;;;;4981711;28;20513;-65
2023/07/24 09:53:17;;;;;;;7.78;4.97;;;22.30;61.40;;;;;;4969760;28;20497;-66
2023/07/24 09:55:56;;;;;;;5.82;4.68;;;22.30;61.50;;;;;;4974571;28;20030;-66
2023/07/24 09:58:23;;;;;;;9.07;5.45;;;22.20;61.20;;;;;;4973287;28;20051;-63
2023/07/24 10:00:49;;;;;;;11.18;6.40;;;22.20;62.10;;;;;;4974000;28;20037;-64
2023/07/24 10:03:16;;;;;;;8.50;5.75;;;22.20;61.80;;;;;;4975814;28;20042;-65
2023/07/24 10:05:44;;;;;;;10.73;5.75;;;22.20;61.70;;;;;;4974865;28;20058;-65
2023/07/24 10:08:15;;;;;;;10.80;7.00;;;22.20;61.70;;;;;;4974198;28;20058;-66
2023/07/24 10:10:41;;;;;;;12.10;6.82;;;22.30;62.50;;;;;;4979923;28;20405;-65
2023/07/24 10:13:10;;;;;;;9.18;6.25;;;22.30;61.70;;;;;;4984115;28;20490;-64
2023/07/24 10:15:37;;;;;;;10.80;6.85;;;22.30;61.50;;;;;;4980682;28;20031;-63
2023/07/24 10:18:04;;;;;;;10.40;7.10;;;22.30;61.80;;;;;;4975138;28;20026;-65
2023/07/24 10:20:35;;;;;;;10.43;7.05;;;22.30;61.70;;;;;;4972111;28;20092;-66
2023/07/24 10:23:02;;;;;;;9.48;6.70;;;22.30;61.90;;;;;;4971287;28;20030;-67
2023/07/24 10:25:33;;;;;;;10.75;6.97;;;22.30;61.80;;;;;;4972888;28;20137;-64
2023/07/24 10:28:15;;;;;;;10.70;7.25;;;22.40;62.10;;;;;;4970103;28;20405;-65
2023/07/24 10:30:41;;;;;;;12.98;7.28;;;22.40;62.10;;;;;;4968458;28;20027;-67
2023/07/24 10:33:18;;;;;;;10.43;7.47;;;22.40;61.80;;;;;;4974356;28;20031;-64
2023/07/24 10:35:47;;;;;;;9.40;6.28;;;22.40;62.10;;;;;;4975087;28;20057;-64
2023/07/24 10:38:15;;;;;;;10.80;7.18;;;22.40;62.10;;;;;;4977410;28;20536;-66
2023/07/24 10:40:43;;;;;;;11.35;7.50;;;22.40;62.40;;;;;;4976093;28;20480;-65
2023/07/24 10:43:11;;;;;;;10.25;6.97;;;22.40;62.00;;;;;;4971285;28;20031;-64
2023/07/24 10:45:46;;;;;;;9.88;6.82;;;22.40;62.00;;;;;;4975991;28;20030;-65
2023/07/24 10:48:12;;;;;;;10.20;7.05;;;22.40;61.90;;;;;;4974620;28;20045;-66
2023/07/24 10:50:39;;;;;;;9.73;7.32;;;22.40;62.10;;;;;;4980083;28;20030;-65
2023/07/24 10:53:05;;;;;;;12.32;8.52;;;22.40;61.80;;;;;;4971512;28;20104;-66
2023/07/24 10:55:30;;;;;;;9.32;7.57;;;22.40;62.30;;;;;;4973909;28;20638;-65
2023/07/24 10:57:56;;;;;;;10.65;8.05;;;22.40;62.50;;;;;;4974152;28;20027;-64
2023/07/24 11:00:21;;;;;;;12.30;7.00;;;22.40;62.60;;;;;;4981384;28;20031;-65
2023/07/24 11:02:47;;;;;;;11.10;7.63;;;22.50;62.20;;;;;;4964471;28;20059;-65
2023/07/24 11:05:13;;;;;;;12.07;7.63;;;22.40;62.30;;;;;;4994736;28;20034;-65
2023/07/24 11:07:39;;;;;;;10.55;7.72;;;22.50;62.00;;;;;;4973246;28;20121;-65
2023/07/24 11:10:15;;;;;;;13.55;7.15;;;22.50;62.00;;;;;;4974281;28;20113;-65
2023/07/24 11:12:41;;;;;;;10.88;7.38;;;22.50;62.90;;;;;;4969602;28;20027;-65
2023/07/24 11:15:07;;;;;;;9.98;7.07;;;22.50;62.20;;;;;;4970479;28;20054;-65
2023/07/24 11:17:42;;;;;;;12.40;7.65;;;22.50;62.20;;;;;;4983893;28;20031;-64
2023/07/24 11:20:13;;;;;;;9.90;7.38;;;22.50;62.20;;;;;;4982459;28;20049;-65
2023/07/24 11:22:39;;;;;;;12.05;7.95;;;22.50;62.00;;;;;;4982054;28;20113;-68
2023/07/24 11:25:06;;;;;;;12.32;7.90;;;22.50;62.20;;;;;;4975495;28;20031;-65
2023/07/24 11:27:32;;;;;;;12.77;8.75;;;22.50;62.20;;;;;;4974471;28;20042;-65
2023/07/24 11:29:58;;;;;;;10.25;7.20;;;22.50;62.60;;;;;;4980239;28;20158;-66
2023/07/24 11:32:23;;;;;;;11.80;7.07;;;22.50;62.10;;;;;;4973526;28;20442;-64
2023/07/24 11:34:50;;;;;;;10.43;7.30;;;22.50;62.40;;;;;;4974626;28;20035;-65
2023/07/24 11:37:16;;;;;;;16.80;8.70;;;22.50;62.50;;;;;;4976753;28;20494;-65
2023/07/24 11:39:42;;;;;;;12.65;8.35;;;22.50;63.00;;;;;;4968172;28;20521;-63
2023/07/24 11:42:07;;;;;;;10.02;7.40;;;22.50;63.00;;;;;;4978717;28;20067;-64
2023/07/24 11:44:33;;;;;;;13.40;8.18;;;22.50;62.90;;;;;;4971376;28;20108;-64
2023/07/24 11:47:03;;;;;;;14.98;7.68;;;22.50;62.90;;;;;;4979057;28;20429;-66
2023/07/24 11:49:31;;;;;;;12.60;8.45;;;22.40;63.30;;;;;;4975777;28;20047;-65
2023/07/24 11:52:06;;;;;;;12.48;8.82;;;22.50;63.30;;;;;;4976248;28;20026;-64
2023/07/24 11:54:35;;;;;;;12.20;8.35;;;22.40;63.00;;;;;;4976007;28;20461;-62
2023/07/24 11:57:01;;;;;;;12.45;8.77;;;22.40;63.00;;;;;;4970429;28;20050;-63
2023/07/24 11:59:26;;;;;;;13.35;7.03;;;22.40;63.50;;;;;;4974586;28;20031;-63
2023/07/24 12:01:52;;;;;;;12.95;7.72;;;22.40;63.10;;;;;;4974822;28;20026;-63
2023/07/24 12:04:18;;;;;;;13.57;8.68;;;22.40;64.70;;;;;;4974000;28;20085;-65
2023/07/24 12:06:44;;;;;;;12.38;7.95;;;22.40;64.10;;;;;;4972429;28;20035;-62
2023/07/24 12:09:11;;;;;;;13.35;8.85;;;22.40;67.20;;;;;;4971818;28;20462;-65
2023/07/24 12:11:44;;;;;;;12.43;7.55;;;22.30;67.10;;;;;;4971634;28;20035;-66
2023/07/24 12:14:09;;;;;;;10.48;7.25;;;22.40;68.20;;;;;;4974213;28;20049;-60
2023/07/24 12:16:38;;;;;;;10.45;7.13;;;22.40;67.30;;;;;;4984316;28;20030;-63
2023/07/24 12:19:04;;;;;;;11.50;7.82;;;22.40;67.30;;;;;;4978338;28;20271;-61
2023/07/24 12:21:29;;;;;;;12.10;8.13;;;22.40;67.30;;;;;;4976164;28;20027;-63
2023/07/24 12:23:55;;;;;;;10.88;8.30;;;22.40;66.50;;;;;;4984269;28;20076;-65
2023/07/24 12:26:20;;;;;;;9.40;7.03;;;22.40;66.60;;;;;;4971326;28;20232;-65
2023/07/24 12:28:46;;;;;;;10.13;7.80;;;22.50;69.30;;;;;;4973532;28;20034;-63
2023/07/24 12:31:11;;;;;;;10.40;7.47;;;22.50;68.40;;;;;;4979152;28;20118;-65
2023/07/24 12:33:37;;;;;;;12.73;7.78;;;22.50;68.40;;;;;;4972677;28;20041;-63
2023/07/24 12:36:03;;;;;;;8.52;6.65;;;22.50;69.00;;;;;;4977420;28;20582;-63
2023/07/24 12:38:29;;;;;;;12.48;8.07;;;22.50;69.20;;;;;;4979172;28;20167;-63
2023/07/24 12:40:54;;;;;;;8.13;6.50;;;22.50;68.70;;;;;;4966281;28;20026;-65